createdAt,value
2023-05-21T00:04:01.090Z,100267.28
2023-05-21T00:09:06.563Z,100272.47
2023-05-21T00:14:09.775Z,100275.22
2023-05-21T00:19:13.535Z,100287.81
2023-05-21T00:24:16.388Z,100283.50
2023-05-21T00:29:19.188Z,100286.78
2023-05-21T00:34:22.297Z,100273.16
2023-05-21T00:39:25.780Z,100286.78
2023-05-21T00:44:34.195Z,100284.94
2023-05-21T00:49:37.362Z,100270.03
2023-05-21T00:54:40.398Z,100265.50
2023-05-21T00:59:44.425Z,100271.47
2023-05-21T01:04:47.310Z,100277.63
2023-05-21T01:09:50.136Z,100259.03
2023-05-21T01:14:54.260Z,100263.72
2023-05-21T01:19:59.079Z,100253.16
2023-05-21T01:25:03.993Z,100255.31
2023-05-21T01:30:08.505Z,100262.72
2023-05-21T01:35:26.319Z,100255.81
2023-05-21T01:40:46.429Z,100255.94
2023-05-21T01:45:54.142Z,100256.84
2023-05-21T01:51:05.062Z,100256.78
2023-05-21T01:56:08.596Z,100260.38
2023-05-21T02:01:12.090Z,100260.94
2023-05-21T02:06:15.215Z,100256.56
2023-05-21T02:11:18.210Z,100263.50
2023-05-21T02:16:22.865Z,100259.31
2023-05-21T02:21:26.443Z,100252.59
2023-05-21T02:26:29.425Z,100258.69
2023-05-21T02:31:32.367Z,100250.41
2023-05-21T02:36:36.141Z,100250.19
2023-05-21T02:41:39.531Z,100252.75
2023-05-21T02:46:42.615Z,100242.81
2023-05-21T02:51:45.407Z,100246.09
2023-05-21T02:56:48.519Z,100247.75
2023-05-21T03:01:51.407Z,100254.09
2023-05-21T03:06:55.254Z,100245.63
2023-05-21T03:11:58.278Z,100253.56
2023-05-21T03:17:03.486Z,100249.44
2023-05-21T03:22:06.892Z,100251.38
2023-05-21T03:27:09.924Z,100245.78
2023-05-21T03:32:13.732Z,100238.78
2023-05-21T03:37:16.828Z,100257.75
2023-05-21T03:42:19.639Z,100258.38
2023-05-21T03:47:22.888Z,100251.66
2023-05-21T03:52:25.711Z,100253.78
2023-05-21T03:57:28.890Z,100252.19
2023-05-21T04:02:32.728Z,100257.78
2023-05-21T04:07:38.306Z,100256.84
2023-05-21T04:12:41.428Z,100255.31
2023-05-21T04:17:45.474Z,100264.56
2023-05-21T04:22:49.014Z,100255.28
2023-05-21T04:27:52.672Z,100266.34
2023-05-21T04:32:55.611Z,100254.72
2023-05-21T04:37:58.517Z,100253.66
2023-05-21T04:43:02.198Z,100247.22
2023-05-21T04:48:05.609Z,100256.47
2023-05-21T04:53:08.882Z,100268.50
2023-05-21T04:58:11.967Z,100271.88
2023-05-21T05:03:15.115Z,100264.69
2023-05-21T05:08:18.176Z,100269.28
2023-05-21T05:13:21.340Z,100248.41
2023-05-21T05:18:24.530Z,100237.22
2023-05-21T05:23:27.400Z,100238.41
2023-05-21T05:28:30.163Z,100234.66
2023-05-21T05:33:32.976Z,100234.19
2023-05-21T05:38:36.482Z,100236.84
2023-05-21T05:43:39.508Z,100230.78
2023-05-21T05:48:42.467Z,100236.06
2023-05-21T05:53:45.712Z,100231.47
2023-05-21T05:58:48.682Z,100224.72
2023-05-21T06:03:52.419Z,100218.81
2023-05-21T06:08:55.628Z,100222.19
2023-05-21T06:14:01.539Z,100216.41
2023-05-21T06:19:04.666Z,100210.00
2023-05-21T06:24:07.757Z,100209.31
2023-05-21T06:29:10.664Z,100207.44
2023-05-21T06:34:13.698Z,100198.81
2023-05-21T06:39:17.353Z,100193.97
2023-05-21T06:44:20.792Z,100194.84
2023-05-21T06:49:23.858Z,100185.84
2023-05-21T06:54:27.212Z,100187.78
2023-05-21T06:59:30.459Z,100177.34
2023-05-21T07:04:35.549Z,100161.59
2023-05-21T07:09:38.472Z,100163.56
2023-05-21T07:14:42.943Z,100159.28
2023-05-21T07:19:46.181Z,100163.66
2023-05-21T07:24:49.213Z,100167.00
2023-05-21T07:29:52.092Z,100154.16
2023-05-21T07:34:55.904Z,100153.97
2023-05-21T08:08:07.935Z,100151.16
2023-05-21T08:13:16.745Z,100149.69
2023-05-21T08:18:19.665Z,100146.56
2023-05-21T08:23:22.888Z,100151.72
2023-05-21T08:28:27.701Z,100151.97
2023-05-21T08:33:30.968Z,100159.09
2023-05-21T08:38:36.956Z,100147.78
2023-05-21T08:43:40.816Z,100144.22
2023-05-21T10:14:34.797Z,100117.09
2023-05-21T10:19:39.448Z,100109.88
2023-05-21T10:24:44.466Z,100104.47
2023-05-21T10:29:48.993Z,100099.91
2023-05-21T10:34:58.562Z,100096.41
2023-05-21T10:40:02.431Z,100091.03
2023-05-21T10:45:48.435Z,100082.69
2023-05-21T10:51:36.239Z,100093.31
2023-05-21T10:57:22.051Z,100079.72
2023-05-21T11:02:27.504Z,100074.31
2023-05-21T11:07:56.877Z,100075.09
2023-05-21T11:13:17.184Z,100073.22
2023-05-21T11:18:20.240Z,100084.34
2023-05-21T11:23:24.019Z,100077.00
2023-05-21T11:28:34.415Z,100074.31
2023-05-21T11:33:37.657Z,100076.22
2023-05-21T11:38:40.890Z,100068.59
2023-05-21T11:43:44.394Z,100070.28
2023-05-21T11:48:48.205Z,100066.16
2023-05-21T11:53:51.811Z,100063.72
2023-05-21T11:58:55.959Z,100065.63
2023-05-21T12:03:58.998Z,100053.66
2023-05-21T12:09:02.172Z,100046.03
2023-05-21T12:14:09.306Z,100049.03
2023-05-21T12:19:12.796Z,100036.81
2023-05-21T12:24:16.501Z,100039.50
2023-05-21T12:29:20.439Z,100020.66
2023-05-21T12:34:49.826Z,100031.81
2023-05-21T12:39:55.922Z,100028.47
2023-05-21T12:44:59.095Z,100020.72
2023-05-21T12:50:08.562Z,100010.28
2023-05-21T12:55:15.053Z,100008.84
2023-05-21T13:00:24.342Z,100006.44
2023-05-21T13:05:27.696Z,99995.31
2023-05-21T13:10:30.654Z,99998.16
2023-05-21T13:15:33.771Z,100003.97
2023-05-21T13:20:37.382Z,99988.66
2023-05-21T13:25:40.640Z,99987.41
2023-05-21T13:30:43.742Z,99984.25
2023-05-21T13:35:51.209Z,99972.34
2023-05-21T13:40:54.199Z,99973.97
2023-05-21T13:45:57.019Z,99965.06
2023-05-21T13:51:01.294Z,99962.19
2023-05-21T13:56:05.232Z,99949.91
2023-05-21T14:01:08.387Z,99950.94
2023-05-21T14:06:12.004Z,99956.19
2023-05-21T14:11:14.898Z,99945.47
2023-05-21T14:16:18.568Z,99955.97
2023-05-21T14:21:21.878Z,99955.53
2023-05-21T14:26:26.857Z,99958.91
2023-05-21T14:31:30.354Z,99945.13
2023-05-21T14:36:33.373Z,99952.63
2023-05-21T14:41:39.845Z,99932.25
2023-05-21T14:46:42.759Z,99937.78
2023-05-21T14:51:47.557Z,99929.13
2023-05-21T14:56:53.616Z,99934.25
2023-05-21T15:01:56.835Z,99935.56
2023-05-21T15:07:00.303Z,99926.13
2023-05-21T15:12:04.337Z,99928.69
2023-05-21T15:17:07.726Z,99923.34
2023-05-21T15:22:11.119Z,99920.34
2023-05-21T15:27:13.968Z,99919.22
2023-05-21T15:32:17.918Z,99922.34
2023-05-21T15:37:21.784Z,99920.97
2023-05-21T15:42:24.864Z,99910.41
2023-05-21T15:47:27.985Z,99909.66
2023-05-21T15:52:31.002Z,99914.94
2023-05-21T15:57:34.063Z,99922.31
2023-05-21T16:02:37.306Z,99925.34
2023-05-21T16:07:42.215Z,99922.19
2023-05-21T16:12:45.397Z,99929.97
2023-05-21T16:17:48.591Z,99921.72
2023-05-21T16:22:51.487Z,99931.81
2023-05-21T16:27:55.232Z,99941.44
2023-05-21T16:32:58.249Z,99941.91
2023-05-21T16:38:01.710Z,99941.88
2023-05-21T16:43:04.979Z,99952.47
2023-05-21T16:48:08.709Z,99951.75
2023-05-21T16:53:11.859Z,99953.50
2023-05-21T16:58:15.158Z,99956.03
2023-05-21T17:03:18.170Z,99956.69
2023-05-21T17:08:21.179Z,99958.38
2023-05-21T17:13:24.272Z,99962.50
2023-05-21T17:18:27.295Z,99960.84
2023-05-21T17:23:30.541Z,99962.19
2023-05-21T17:28:33.509Z,99949.94
2023-05-21T17:33:38.171Z,99950.72
2023-05-21T17:38:41.153Z,99958.25
2023-05-21T17:43:44.280Z,99959.75
2023-05-21T17:48:47.324Z,99966.25
2023-05-21T17:53:50.455Z,99972.56
2023-05-21T17:58:53.680Z,99967.63
2023-05-21T18:03:56.721Z,99972.81
2023-05-21T18:08:59.703Z,99978.63
2023-05-21T18:14:04.025Z,99975.28
2023-05-21T18:19:07.404Z,99982.97
2023-05-21T18:24:10.520Z,99980.28
2023-05-21T18:29:15.035Z,99980.38
2023-05-21T18:34:18.104Z,99967.44
2023-05-21T18:39:24.779Z,99980.47
2023-05-21T18:44:27.893Z,99992.53
2023-05-21T18:49:34.005Z,99992.00
2023-05-21T18:54:36.961Z,99995.28
2023-05-21T18:59:40.861Z,99997.88
2023-05-21T19:04:46.881Z,100013.13
2023-05-21T19:09:49.960Z,100011.72
2023-05-21T19:14:53.526Z,100015.31
2023-05-21T19:19:56.824Z,100028.47
2023-05-21T19:25:00.769Z,100028.53
2023-05-21T19:30:04.213Z,100038.09
2023-05-21T19:35:07.903Z,100039.44
2023-05-21T19:40:11.320Z,100037.66
2023-05-21T19:45:15.588Z,100041.09
2023-05-21T19:50:19.179Z,100036.97
2023-05-21T19:55:22.967Z,100036.66
2023-05-21T20:00:26.403Z,100035.53
2023-05-21T20:05:29.407Z,100031.94
2023-05-21T20:10:32.462Z,100035.34
2023-05-21T20:15:35.950Z,100032.13
2023-05-21T20:20:39.874Z,100040.09
2023-05-21T20:25:43.217Z,100034.19
2023-05-21T20:30:59.033Z,100031.31
2023-05-21T20:36:03.463Z,100034.22
2023-05-21T20:41:06.284Z,100025.72
2023-05-21T20:46:09.402Z,100033.19
2023-05-21T20:51:12.491Z,100031.97
2023-05-21T20:56:21.687Z,100034.88
2023-05-21T21:01:30.559Z,100032.19
2023-05-21T21:06:33.871Z,100030.34
2023-05-21T21:11:37.174Z,100027.09
2023-05-21T21:16:40.131Z,100044.06
2023-05-21T21:21:43.114Z,100080.13
2023-05-21T21:26:46.104Z,100059.88
2023-05-21T21:31:50.835Z,100065.25
2023-05-21T21:36:54.477Z,100064.00
2023-05-21T21:41:57.556Z,100063.63
2023-05-21T21:47:00.851Z,100061.16
2023-05-21T21:52:04.096Z,100060.72
2023-05-21T21:57:07.061Z,100064.00
2023-05-21T22:02:10.004Z,100059.47
2023-05-21T22:07:16.950Z,100059.88
2023-05-21T22:12:20.037Z,100058.69
2023-05-21T22:17:23.504Z,100057.25
2023-05-21T22:22:26.935Z,100060.78
2023-05-21T22:27:29.925Z,100059.78
2023-05-21T22:32:33.619Z,100064.78
2023-05-21T22:37:37.432Z,100055.47
2023-05-21T22:42:40.843Z,100055.09
2023-05-21T22:47:43.876Z,100063.34
2023-05-21T22:52:46.967Z,100067.72
2023-05-21T22:57:49.900Z,100077.88
2023-05-21T23:02:54.486Z,100070.06
2023-05-21T23:07:57.982Z,100067.00
2023-05-21T23:13:00.670Z,100069.50
2023-05-21T23:18:04.022Z,100072.16
2023-05-21T23:23:07.595Z,100067.19
2023-05-21T23:28:10.797Z,100069.69
2023-05-21T23:33:14.029Z,100075.69
2023-05-21T23:38:17.121Z,100070.75
2023-05-21T23:43:20.120Z,100064.81
2023-05-21T23:48:23.105Z,100059.84
2023-05-21T23:53:26.393Z,100069.34
2023-05-21T23:58:29.488Z,100066.88
